Terminal Aerodrome Forecast
Issued by NWS

Current Version | Previous Version | Text Only | Print | Product List | Glossary On
Versions: 1 2 3 4 5 6 7 8 9 10 11 12 13 14 15 16 17 18 19 20 21 22 23 24 25 26 27 28 29 30 31 32 33 34
000
FTUS42 KRAH 201721
TAFRWI
TAF
KRWI 201721Z 2018/2118 21009G17KT P6SM SCT250
      TEMPO 2020/2024 BKN045
     FM210000 22005KT P6SM SCT250
     FM210600 25005KT P6SM BKN120
     FM211600 27007KT P6SM FEW050=

USA.gov is the U.S. government's official web portal to all federal, state and local government web resources and services.